Trail de la Vallerustie / 10 KM

55 participants comptabilisés



Classement général

Date de la course :
Le 15/10/2017. Départ à 09:00

RÉSULTATS PDF PHOTOS 

Class. Participant Temps Dossard Clt / Cat Clt / Sexe Moyenne Club
Class. Participant Temps Dossard Clt / Cat Clt / Sexe Moyenne Club
1Anthony QUILICI1291 SE M1 M0:54:4210.97AS FIGARELLA
2Jean Laurent DOMINICI1421 JU M2 M0:57:4710.38UNITI ISLAND
3Noel GIORDANO1431 ES M3 M1:02:379.58COURSE A PAOLINA
4Julien SOLER1351 CA M4 M1:02:399.58
5Augustin VIENNE1412 SE M5 M1:06:019.09RESTONICA TRAIL
6Bernard GIUDICELLI1401 V1 M6 M1:06:029.09
7Emmanuel HORRILLO1172 V1 M7 M1:07:108.93CA BASTIA
8Jean Louis CINQUI1113 V1 M8 M1:07:128.93
9Frederic TRAMINI1524 V1 M9 M1:12:158.3
10Loic FROMENT1453 SE M10 M1:12:408.26
11Maxime LEDOUX1514 SE M11 M1:14:338.05
12Henri CACCIARI1505 SE M12 M1:15:057.99LUCCIANA ATLETISMU
13Anthony SANTUCCI1336 SE M13 M1:15:307.95CASINCA TRAIL
14Adrien PELLETIER1242 ES M14 M1:16:287.85
15Charles FILIPPINI1495 V1 M15 M1:18:117.67
16Samuel TERRIEN1366 V1 M16 M1:18:127.67
17Hugues ALLADIO1001 V2 M17 M1:18:557.6ATHLETIC JEUNES BASTIA
18Cedric MARCIANO1197 V1 M18 M1:20:037.5ASSOCIU LANINCA PAESE DI LANU
19Magalie GRAZZINI1371 SE F1 F1:20:047.49AC CAPU BIANCU
20Judith TERRENNE1391 V1 F2 F1:21:097.39
21Vincent PONGERARD1277 SE M19 M1:21:317.36
22Anthony BARONI1048 SE M20 M1:22:387.26
23Jean Philippe MENETREY1202 V2 M21 M1:24:017.14SQUADRA CARPINETO
24Charles COLOMBANI1121 V3 M22 M1:24:317.1AC CORTE
25Paul QUILICHINI1288 V1 M23 M1:25:127.04SPORTS NATURE PIANOTTOLI CALDARELLO
26David PINNA1269 V1 M24 M1:25:167.04CASINCA TRAIL
27Louis NATALI14710 V1 M25 M1:25:387.01
28Sophie DONSIMONI1152 SE F3 F1:25:566.98
29Pierre PIETRI1253 V2 M26 M1:27:516.83GHJUVENTÙ ALISGIANINCA TRAIL
30Grégory ARNAUD1039 SE M27 M1:28:386.77
31Stephane MURACCIOLE12211 V1 M28 M1:28:396.77
32Augustin FRANCHESCHINI1534 V2 M29 M1:32:236.49
33Patrick BRUEL1072 V3 M30 M1:32:356.48CASINCA TRAIL
34Christian CUQ1133 V3 M31 M1:32:456.47
35Rémi LIMONGI11810 SE M32 M1:32:476.47CASINCA TRAIL
36Thomas RENARD13012 V1 M33 M1:35:196.29
37Marie Lucile BRADESI1063 SE F4 F1:35:376.28
38Pierre Vincent BATTESTI10511 SE M34 M1:35:386.27
39Lauriane CECCALDI1084 SE F5 F1:37:406.14
40Pierre GUIDONI14412 SE M35 M1:37:426.14
41Marc Olivier DHUILQ14613 V1 M36 M1:37:506.13RAMBOUILLET SPORT XTREM
42Christophe BERNARDINI13813 SE M37 M1:39:096.05AC CAPU BIANCU
43François FERRARI11614 SE M38 M1:40:095.99
44François CERVETTI1094 V3 M39 M1:46:565.61ASSOCIU MUNTAGNOLU DI U FIUMORBU
45Boualem KACI CHAOUCHE1545 V3 M40 M1:54:375.23PGAC
46Jean Dominique ROCCHI13114 V1 M41 M1:59:185.03CASINCA TRAIL
47Mégane ANZIANI1023 ES M42 M1:59:415.01
48Angele CINQUI1101 V4 F6 F2:02:554.88
49Alice PARADISI1235 SE F7 F2:12:274.53
50Augusta MOUNIER1211 V2 F8 F2:14:234.46ART DECO BALLON CORSICA
51Michelle DIONISIO1142 V2 F9 F2:17:464.36ART DECO BALLON CORSICA
52Laura ROMANI1321 ES F10 F2:20:474.26
53Micheline GAUTIER1481 V3 F11 F2:20:484.26
9998Paul François SIMON134ABANDONABANDONABANDONABANDONCOURSE A PAOLINA
9998Nadine AMBROSI101ABANDONABANDONABANDONABANDONCOURSE A PAOLINA

RETOUR GROUPE  TOUTES LES COURSES

Applicazione KRONO © Versione 2.4

Made in Corsica da NUBEUS SAS ©, tutti diritti riservati.